createdAt,value
2019-05-06T00:01:34.092Z,4.30
2019-05-06T00:04:37.532Z,3.47
2019-05-06T00:07:44.477Z,3.80
2019-05-06T00:10:48.269Z,4.00
2019-05-06T00:13:54.092Z,3.83
2019-05-06T00:16:58.761Z,3.50
2019-05-06T00:20:04.282Z,3.47
2019-05-06T00:23:24.833Z,4.37
2019-05-06T00:26:56.935Z,3.90
2019-05-06T00:29:59.297Z,4.00
2019-05-06T00:33:04.378Z,4.30
2019-05-06T00:36:08.177Z,4.20
2019-05-06T00:39:40.170Z,4.10
2019-05-06T00:42:57.389Z,4.13
2019-05-06T00:46:01.102Z,5.17
2019-05-06T00:49:04.867Z,4.23
2019-05-06T00:52:08.831Z,4.10
2019-05-06T00:55:13.711Z,4.17
2019-05-06T00:58:17.544Z,4.20
2019-05-06T01:01:27.031Z,4.43
2019-05-06T01:04:26.860Z,4.30
2019-05-06T01:07:30.560Z,4.30
2019-05-06T01:10:34.498Z,4.10
2019-05-06T01:13:54.521Z,4.63
2019-05-06T01:16:58.346Z,4.70
2019-05-06T01:20:04.338Z,4.97
2019-05-06T01:23:08.287Z,4.63
2019-05-06T01:26:14.907Z,4.40
2019-05-06T01:29:18.270Z,4.93
2019-05-06T01:32:23.659Z,4.60
2019-05-06T01:35:27.437Z,5.27
2019-05-06T01:38:35.601Z,5.00
2019-05-06T01:41:48.559Z,5.40
2019-05-06T01:44:53.848Z,5.00
2019-05-06T01:47:57.931Z,3.87
2019-05-06T01:51:03.459Z,5.67
2019-05-06T01:54:07.109Z,5.10
2019-05-06T01:57:10.821Z,5.00
2019-05-06T02:00:14.936Z,4.63
2019-05-06T02:03:18.631Z,4.97
2019-05-06T02:06:24.785Z,4.97
2019-05-06T02:09:27.828Z,4.80
2019-05-06T02:12:31.509Z,5.77
2019-05-06T02:15:35.220Z,5.30
2019-05-06T02:18:39.197Z,5.70
2019-05-06T02:22:17.071Z,5.17
2019-05-06T02:25:24.717Z,4.90
2019-05-06T02:28:28.431Z,4.90
2019-05-06T02:31:54.626Z,5.33
2019-05-06T02:35:15.373Z,6.10
2019-05-06T02:38:35.578Z,5.57
2019-05-06T02:41:33.721Z,7.50
2019-05-06T02:44:37.838Z,5.83
2019-05-06T02:47:53.692Z,4.87
2019-05-06T02:50:59.281Z,5.00
2019-05-06T02:54:03.416Z,5.57
2019-05-06T02:57:07.576Z,5.57
2019-05-06T03:00:15.108Z,5.37
2019-05-06T03:03:18.875Z,5.50
2019-05-06T03:06:23.842Z,5.57
2019-05-06T03:09:27.725Z,5.70
2019-05-06T03:12:33.524Z,4.90
2019-05-06T03:15:36.846Z,4.90
2019-05-06T03:18:43.136Z,5.30
2019-05-06T03:21:57.913Z,5.13
2019-05-06T03:25:13.902Z,5.10
2019-05-06T03:28:17.589Z,5.40
2019-05-06T03:31:25.952Z,6.37
2019-05-06T03:34:49.236Z,5.70
2019-05-06T03:37:33.428Z,7.13
2019-05-06T03:40:41.821Z,5.80
2019-05-06T03:43:43.678Z,6.00
2019-05-06T03:47:09.293Z,6.70
2019-05-06T03:50:13.503Z,7.23
2019-05-06T03:53:17.294Z,7.20
2019-05-06T03:56:23.946Z,6.60
2019-05-06T03:59:33.299Z,6.67
2019-05-06T04:02:39.416Z,7.07
2019-05-06T04:05:43.571Z,7.73
2019-05-06T04:08:48.075Z,6.83
2019-05-06T04:11:54.149Z,6.43
2019-05-06T04:14:57.681Z,7.67
2019-05-06T04:18:06.530Z,7.30
2019-05-06T04:21:18.999Z,9.33
2019-05-06T04:24:30.000Z,7.17
2019-05-06T04:27:38.123Z,8.90
2019-05-06T04:30:42.980Z,8.63
2019-05-06T04:34:05.329Z,7.93
2019-05-06T04:36:53.301Z,9.97
2019-05-06T04:39:57.557Z,8.97
2019-05-06T04:43:03.614Z,9.20
2019-05-06T04:46:07.221Z,8.70
2019-05-06T04:49:14.882Z,8.40
2019-05-06T04:52:17.308Z,11.03
2019-05-06T04:55:22.634Z,9.93
2019-05-06T04:58:27.178Z,10.13
2019-05-06T05:01:33.883Z,9.33
2019-05-06T05:04:37.127Z,8.13
2019-05-06T05:07:42.547Z,7.93
2019-05-06T05:10:53.097Z,8.97
2019-05-06T05:14:14.737Z,8.23
2019-05-06T05:17:25.156Z,8.30
2019-05-06T05:20:37.683Z,8.47
2019-05-06T05:23:34.674Z,8.33
2019-05-06T05:26:39.038Z,8.57
2019-05-06T05:29:42.728Z,8.33
2019-05-06T05:32:46.880Z,7.17
2019-05-06T05:35:52.598Z,8.00
2019-05-06T05:38:56.089Z,9.40
2019-05-06T05:42:05.694Z,7.30
2019-05-06T05:45:10.313Z,7.87
2019-05-06T05:48:24.470Z,7.97
2019-05-06T05:51:28.507Z,7.57
2019-05-06T05:54:33.276Z,7.60
2019-05-06T05:57:37.378Z,7.90
2019-05-06T06:00:42.585Z,7.70
2019-05-06T06:03:46.564Z,6.43
2019-05-06T06:06:51.993Z,6.27
2019-05-06T06:10:03.027Z,7.03
2019-05-06T06:13:06.952Z,6.47
2019-05-06T06:16:38.904Z,5.07
2019-05-06T06:19:50.717Z,4.87
2019-05-06T06:22:56.498Z,5.13
2019-05-06T06:26:03.681Z,4.43
2019-05-06T06:29:06.040Z,5.37
2019-05-06T06:32:18.104Z,4.90
2019-05-06T06:35:27.600Z,4.57
2019-05-06T06:38:56.450Z,4.97
2019-05-06T06:42:00.158Z,5.00
2019-05-06T06:45:04.645Z,4.83
2019-05-06T06:48:08.494Z,4.77
2019-05-06T06:51:12.787Z,4.73
2019-05-06T06:54:16.466Z,4.87
2019-05-06T06:57:36.322Z,4.17
2019-05-06T07:01:16.019Z,4.73
2019-05-06T07:04:28.850Z,4.60
2019-05-06T07:07:43.449Z,4.40
2019-05-06T07:10:45.059Z,4.30
2019-05-06T07:13:55.574Z,4.93
2019-05-06T07:16:59.536Z,3.77
2019-05-06T07:20:06.921Z,4.33
2019-05-06T07:23:27.184Z,4.73
2019-05-06T07:26:35.939Z,4.17
2019-05-06T07:29:39.885Z,3.87
2019-05-06T07:32:43.704Z,3.87
2019-05-06T07:35:48.176Z,3.87
2019-05-06T07:38:52.650Z,3.83
2019-05-06T07:41:59.255Z,3.90
2019-05-06T07:45:15.502Z,3.70
2019-05-06T07:48:19.222Z,3.40
2019-05-06T07:51:23.836Z,3.57
2019-05-06T07:54:27.834Z,3.17
2019-05-06T07:57:32.992Z,2.77
2019-05-06T08:00:37.646Z,3.17
2019-05-06T08:03:42.756Z,3.30
2019-05-06T08:06:46.700Z,3.07
2019-05-06T08:09:52.426Z,2.90
2019-05-06T08:12:55.896Z,2.80
2019-05-06T08:15:59.607Z,2.97
2019-05-06T08:19:03.516Z,2.83
2019-05-06T08:22:12.002Z,2.70
2019-05-06T08:25:16.026Z,3.40
2019-05-06T08:28:22.394Z,3.03
2019-05-06T08:31:25.476Z,2.90
2019-05-06T08:34:29.172Z,2.40
2019-05-06T08:37:34.851Z,2.40
2019-05-06T08:40:38.603Z,2.57
2019-05-06T08:43:42.371Z,2.77
2019-05-06T08:46:46.389Z,2.90
2019-05-06T08:50:02.523Z,3.10
2019-05-06T08:53:23.989Z,3.27
2019-05-06T08:56:25.450Z,4.27
2019-05-06T08:59:29.160Z,3.10
2019-05-06T09:02:32.853Z,3.40
2019-05-06T09:05:36.552Z,3.60
2019-05-06T09:08:42.838Z,3.30
2019-05-06T09:11:46.014Z,3.40
2019-05-06T09:14:49.719Z,3.50
2019-05-06T09:17:53.402Z,3.00
2019-05-06T09:20:57.444Z,3.70
2019-05-06T09:24:02.250Z,3.53
2019-05-06T09:27:42.173Z,3.70
2019-05-06T09:30:52.414Z,3.57
2019-05-06T09:34:02.787Z,3.07
2019-05-06T09:37:15.341Z,2.90
2019-05-06T09:40:19.215Z,3.20
2019-05-06T09:43:23.187Z,3.47
2019-05-06T09:46:26.901Z,3.00
2019-05-06T09:49:32.944Z,3.07
2019-05-06T09:52:36.736Z,3.10
2019-05-06T09:55:46.035Z,3.57
2019-05-06T09:58:49.814Z,2.93
2019-05-06T10:01:53.746Z,3.20
2019-05-06T10:04:57.742Z,2.70
2019-05-06T10:08:03.328Z,2.50
2019-05-06T10:11:07.215Z,2.07
2019-05-06T10:14:12.907Z,2.83
2019-05-06T10:17:16.475Z,2.40
2019-05-06T10:20:22.269Z,2.20
2019-05-06T10:23:25.613Z,2.70
2019-05-06T10:26:33.325Z,2.60
2019-05-06T10:29:45.131Z,1.90
2019-05-06T10:32:52.892Z,2.33
2019-05-06T10:36:02.537Z,2.33
2019-05-06T10:39:10.081Z,2.40
2019-05-06T10:42:17.607Z,1.60
2019-05-06T10:45:28.267Z,1.27
2019-05-06T10:48:31.983Z,1.30
2019-05-06T10:51:45.640Z,1.40
2019-05-06T10:54:49.695Z,1.40
2019-05-06T10:57:53.404Z,1.50
2019-05-06T11:01:08.830Z,1.10
2019-05-06T11:04:12.535Z,1.50
2019-05-06T11:07:28.266Z,1.47
2019-05-06T11:10:27.893Z,1.33
2019-05-06T11:13:27.279Z,1.83
2019-05-06T11:16:33.125Z,1.43
2019-05-06T11:19:36.405Z,1.70
2019-05-06T11:22:40.116Z,1.70
2019-05-06T11:25:43.950Z,1.30
2019-05-06T11:28:52.060Z,1.60
2019-05-06T11:32:02.507Z,1.40
2019-05-06T11:35:12.326Z,1.57
2019-05-06T11:38:17.581Z,0.93
2019-05-06T11:41:23.341Z,1.23
2019-05-06T11:44:27.006Z,1.63
2019-05-06T11:47:32.464Z,1.63
2019-05-06T11:50:36.681Z,2.03
2019-05-06T11:53:40.377Z,1.73
2019-05-06T11:56:50.660Z,1.10
2019-05-06T11:59:49.701Z,1.40
2019-05-06T12:02:53.742Z,1.40
2019-05-06T12:05:57.440Z,1.40
2019-05-06T12:09:06.072Z,1.23
2019-05-06T12:12:06.865Z,1.20
2019-05-06T12:15:12.570Z,1.10
2019-05-06T12:18:16.404Z,1.23
2019-05-06T12:21:20.103Z,1.60
2019-05-06T12:24:23.826Z,1.43
2019-05-06T12:27:46.004Z,1.67
2019-05-06T12:30:52.231Z,1.80
2019-05-06T12:33:55.511Z,1.30
2019-05-06T12:37:02.690Z,1.70
2019-05-06T12:40:06.818Z,1.00
2019-05-06T12:43:28.703Z,1.10
2019-05-06T12:46:38.878Z,1.33
2019-05-06T12:49:42.799Z,1.03
2019-05-06T12:52:46.577Z,1.17
2019-05-06T12:55:52.020Z,0.90
2019-05-06T12:58:56.063Z,1.23
2019-05-06T13:02:02.423Z,1.33
2019-05-06T13:05:05.835Z,1.30
2019-05-06T13:08:09.918Z,1.40
2019-05-06T13:11:13.673Z,1.30
2019-05-06T13:14:17.474Z,1.10
2019-05-06T13:17:26.249Z,1.03
2019-05-06T13:20:34.380Z,1.67
2019-05-06T13:23:47.933Z,1.30
2019-05-06T13:26:52.840Z,1.70
2019-05-06T13:29:56.823Z,1.40
2019-05-06T13:33:07.313Z,1.60
2019-05-06T13:36:13.167Z,1.77
2019-05-06T13:39:17.536Z,1.67
2019-05-06T13:42:22.896Z,2.20
2019-05-06T13:45:26.615Z,1.90
2019-05-06T13:48:35.283Z,1.97
2019-05-06T13:51:39.674Z,1.83
2019-05-06T13:54:58.914Z,2.20
2019-05-06T13:58:12.560Z,1.93
2019-05-06T14:01:32.547Z,2.63
2019-05-06T14:04:45.853Z,1.80
2019-05-06T14:08:05.869Z,1.90
2019-05-06T14:11:09.622Z,2.10
2019-05-06T14:14:14.029Z,2.30
2019-05-06T14:17:17.726Z,2.10
2019-05-06T14:20:22.076Z,2.43
2019-05-06T14:23:25.954Z,2.10
2019-05-06T14:26:39.236Z,2.43
2019-05-06T14:29:53.302Z,2.20
2019-05-06T14:32:57.234Z,2.37
2019-05-06T14:36:03.255Z,2.87
2019-05-06T14:39:12.544Z,2.70
2019-05-06T14:42:15.885Z,2.70
2019-05-06T14:45:22.016Z,2.57
2019-05-06T14:48:25.012Z,2.60
2019-05-06T14:51:28.713Z,2.70
2019-05-06T14:54:33.140Z,2.20
2019-05-06T14:57:37.393Z,2.47
2019-05-06T15:00:42.542Z,2.20
2019-05-06T15:03:46.381Z,2.33
2019-05-06T15:06:50.073Z,2.30
2019-05-06T15:10:08.029Z,3.13
2019-05-06T15:12:59.277Z,2.30
2019-05-06T15:16:03.690Z,2.60
2019-05-06T15:19:08.048Z,2.80
2019-05-06T15:22:13.000Z,2.60
2019-05-06T15:25:17.104Z,2.27
2019-05-06T15:28:22.638Z,2.80
2019-05-06T15:31:42.306Z,2.77
2019-05-06T15:34:56.253Z,2.80
2019-05-06T15:38:02.676Z,3.17
2019-05-06T15:41:06.389Z,2.20
2019-05-06T15:44:12.478Z,2.30
2019-05-06T15:47:15.764Z,2.33
2019-05-06T15:50:20.051Z,2.57
2019-05-06T15:53:23.746Z,2.30
2019-05-06T15:56:27.450Z,2.20
2019-05-06T15:59:33.239Z,2.43
2019-05-06T16:02:36.751Z,2.10
2019-05-06T16:05:40.451Z,2.13
2019-05-06T16:08:44.147Z,2.00
2019-05-06T16:11:48.120Z,2.70
2019-05-06T16:14:53.087Z,2.43
2019-05-06T16:17:57.282Z,2.27
2019-05-06T16:21:02.963Z,2.37
2019-05-06T16:24:17.398Z,2.30
2019-05-06T16:27:22.976Z,2.30
2019-05-06T16:30:26.903Z,1.73
2019-05-06T16:33:32.902Z,2.30
2019-05-06T16:36:36.319Z,2.10
2019-05-06T16:39:40.352Z,1.93
2019-05-06T16:42:45.898Z,2.57
2019-05-06T16:45:52.940Z,2.90
2019-05-06T16:48:55.535Z,2.40
2019-05-06T16:51:59.563Z,2.90
2019-05-06T16:55:03.540Z,2.50
2019-05-06T16:58:11.808Z,2.30
2019-05-06T17:01:15.595Z,2.13
2019-05-06T17:04:41.838Z,2.50
2019-05-06T17:07:45.882Z,2.10
2019-05-06T17:10:49.583Z,2.50
2019-05-06T17:13:53.279Z,2.03
2019-05-06T17:16:57.397Z,2.07
2019-05-06T17:20:03.083Z,2.30
2019-05-06T17:23:06.529Z,2.30
2019-05-06T17:26:10.250Z,2.30
2019-05-06T17:29:38.786Z,1.97
2019-05-06T17:32:45.877Z,2.53
2019-05-06T17:35:49.609Z,3.07
2019-05-06T17:38:53.888Z,2.27
2019-05-06T17:41:57.598Z,2.50
2019-05-06T17:45:03.983Z,2.20
2019-05-06T17:48:14.191Z,2.23
2019-05-06T17:51:19.963Z,2.33
2019-05-06T17:54:25.897Z,2.40
2019-05-06T17:57:29.168Z,2.30
2019-05-06T18:00:32.879Z,2.90
2019-05-06T18:03:36.587Z,2.50
2019-05-06T18:06:42.441Z,2.17
2019-05-06T18:09:45.707Z,2.50
2019-05-06T18:12:49.415Z,2.83
2019-05-06T18:15:53.451Z,2.67
2019-05-06T18:18:57.169Z,2.70
2019-05-06T18:22:02.569Z,2.73
2019-05-06T18:25:06.653Z,2.63
2019-05-06T18:28:12.273Z,2.70
2019-05-06T18:31:16.079Z,3.13
2019-05-06T18:34:19.785Z,2.90
2019-05-06T18:37:23.535Z,2.63
2019-05-06T18:40:27.181Z,2.60
2019-05-06T18:43:33.241Z,2.53
2019-05-06T18:46:36.402Z,2.83
2019-05-06T18:49:42.434Z,2.40
2019-05-06T18:52:45.553Z,2.30
2019-05-06T18:55:49.300Z,2.70
2019-05-06T18:58:53.264Z,2.70
2019-05-06T19:01:57.414Z,2.90
2019-05-06T19:05:15.938Z,2.93
2019-05-06T19:08:42.235Z,3.13
2019-05-06T19:11:46.065Z,2.60
2019-05-06T19:14:49.766Z,2.63
2019-05-06T19:17:53.709Z,2.70
2019-05-06T19:20:57.413Z,2.50
2019-05-06T19:24:02.786Z,3.27
2019-05-06T19:27:06.628Z,2.47
2019-05-06T19:30:12.827Z,2.80
2019-05-06T19:33:16.579Z,2.67
2019-05-06T19:36:20.292Z,2.70
2019-05-06T19:39:24.684Z,3.20
2019-05-06T19:42:42.230Z,3.30
2019-05-06T19:45:34.645Z,2.90
2019-05-06T19:48:38.410Z,2.87
2019-05-06T19:51:42.868Z,2.67
2019-05-06T19:54:46.611Z,2.50
2019-05-06T19:57:52.508Z,3.03
2019-05-06T20:00:56.443Z,3.00
2019-05-06T20:04:02.330Z,3.40
2019-05-06T20:07:13.272Z,2.60
2019-05-06T20:10:27.523Z,3.30
2019-05-06T20:13:32.256Z,3.20
2019-05-06T20:16:36.097Z,3.17
2019-05-06T20:19:39.870Z,3.63
2019-05-06T20:22:44.004Z,2.90
2019-05-06T20:25:47.736Z,3.03
2019-05-06T20:28:52.616Z,3.30
2019-05-06T20:31:56.421Z,3.10
2019-05-06T20:35:00.107Z,2.90
2019-05-06T20:38:03.905Z,2.90
2019-05-06T20:41:07.629Z,2.80
2019-05-06T20:44:12.391Z,2.80
2019-05-06T20:47:16.101Z,2.60
2019-05-06T20:50:19.919Z,2.80
2019-05-06T20:53:23.955Z,3.00
2019-05-06T20:56:27.658Z,4.50
2019-05-06T20:59:32.226Z,3.27
2019-05-06T21:02:36.039Z,3.20
2019-05-06T21:05:39.730Z,3.03
2019-05-06T21:08:43.429Z,3.00
2019-05-06T21:11:47.130Z,3.63
2019-05-06T21:14:50.872Z,3.30
2019-05-06T21:17:54.572Z,3.80
2019-05-06T21:20:58.586Z,3.60
2019-05-06T21:24:02.278Z,3.70
2019-05-06T21:27:06.057Z,3.47
2019-05-06T21:30:10.506Z,3.80
2019-05-06T21:33:14.210Z,3.77
2019-05-06T21:36:18.385Z,4.20
2019-05-06T21:39:22.512Z,3.50
2019-05-06T21:42:26.250Z,3.50
2019-05-06T21:45:29.978Z,3.57
2019-05-06T21:48:33.987Z,3.80
2019-05-06T21:51:37.671Z,3.47
2019-05-06T21:54:43.449Z,3.33
2019-05-06T21:57:46.793Z,3.37
2019-05-06T22:01:06.436Z,3.77
2019-05-06T22:04:12.787Z,3.70
2019-05-06T22:07:15.982Z,3.80
2019-05-06T22:10:19.689Z,3.23
2019-05-06T22:13:23.397Z,3.40
2019-05-06T22:16:27.086Z,3.57
2019-05-06T22:19:32.038Z,3.97
2019-05-06T22:22:36.086Z,3.63
2019-05-06T22:25:39.789Z,4.17
2019-05-06T22:28:43.506Z,3.80
2019-05-06T22:31:47.209Z,3.73
2019-05-06T22:34:50.919Z,3.87
2019-05-06T22:37:54.628Z,3.70
2019-05-06T22:40:58.336Z,3.40
2019-05-06T22:44:13.342Z,3.77
2019-05-06T22:47:07.492Z,3.70
2019-05-06T22:50:13.043Z,3.80
2019-05-06T22:53:16.942Z,3.73
2019-05-06T22:56:22.631Z,3.47
2019-05-06T22:59:26.090Z,3.47
2019-05-06T23:02:45.687Z,3.77
2019-05-06T23:05:49.387Z,3.90
2019-05-06T23:08:53.332Z,4.00
2019-05-06T23:11:57.042Z,4.40
2019-05-06T23:15:02.693Z,4.07
2019-05-06T23:18:06.329Z,3.73
2019-05-06T23:21:11.779Z,3.43
2019-05-06T23:24:15.453Z,3.93
2019-05-06T23:27:19.162Z,4.00
2019-05-06T23:30:23.601Z,3.63
2019-05-06T23:33:27.488Z,4.00
2019-05-06T23:37:12.903Z,3.67
2019-05-06T23:40:52.470Z,4.00
2019-05-06T23:44:44.974Z,4.30
2019-05-06T23:48:13.571Z,5.57
2019-05-06T23:51:53.299Z,5.03
2019-05-06T23:55:33.066Z,4.57
2019-05-06T23:58:36.774Z,4.77
